Time;durP1;ratioP1;P1;durP2;ratioP2;P2;SDS_P1;SDS_P2;PMS_P1;PMS_P2;Temp;Humidity;BMP_temperature;BMP_pressure;BME280_temperature;BME280_humidity;BME280_pressure;Samples;Min_cycle;Max_cycle;Signal;HPM_P1;HPM_P2
2022/03/09 00:00:57;;;;;;;;;61.25;43.25;;;;;20.88;22.01;101409.88;5097859;27;45479;-79
2022/03/09 00:03:22;;;;;;;;;56.75;43.50;;;;;21.07;21.40;101367.34;5098709;27;45371;-79
2022/03/09 00:05:48;;;;;;;;;59.75;46.25;;;;;21.31;21.17;101358.94;5079200;27;45384;-78
2022/03/09 00:08:14;;;;;;;;;65.50;48.75;;;;;21.74;20.94;101402.34;5098846;27;45386;-79
2022/03/09 00:10:42;;;;;;;;;57.33;44.00;;;;;21.68;20.95;101396.13;5080432;27;45550;-79
2022/03/09 00:13:08;;;;;;;;;57.50;47.00;;;;;20.89;21.61;101341.53;5098757;27;45372;-78
2022/03/09 00:15:33;;;;;;;;;58.00;45.25;;;;;20.80;21.72;101336.31;5098540;27;45252;-79
2022/03/09 00:17:58;;;;;;;;;56.50;46.25;;;;;21.11;21.36;101361.91;5080537;27;45262;-79
2022/03/09 00:20:24;;;;;;;;;67.50;52.25;;;;;21.36;21.32;101384.94;5080550;27;45571;-78
2022/03/09 00:22:49;;;;;;;;;61.75;47.75;;;;;21.37;20.91;101397.47;5097221;27;48257;-78
2022/03/09 00:25:14;;;;;;;;;52.00;42.33;;;;;21.76;21.18;101416.69;5098609;27;45244;-79
2022/03/09 00:27:40;;;;;;;;;57.00;45.50;;;;;21.82;20.90;101404.00;5098578;27;45374;-79
2022/03/09 00:30:06;;;;;;;;;52.25;42.50;;;;;21.89;20.85;101401.16;5097491;27;45343;-79
2022/03/09 00:32:31;;;;;;;;;58.33;44.33;;;;;21.85;20.79;101391.31;5098119;27;45401;-79
2022/03/09 00:34:57;;;;;;;;;58.25;43.25;;;;;22.01;20.79;101415.34;5098623;27;45398;-80
2022/03/09 00:37:22;;;;;;;;;54.50;42.25;;;;;21.75;20.81;101368.09;5098539;27;45488;-79
2022/03/09 00:39:47;;;;;;;;;54.67;43.67;;;;;22.09;20.79;101426.91;5098379;27;45389;-79
2022/03/09 00:42:12;;;;;;;;;56.00;43.25;;;;;21.64;21.20;101364.69;5098328;27;45579;-79
2022/03/09 00:44:38;;;;;;;;;58.75;49.00;;;;;21.28;21.50;101403.03;5098121;27;45431;-79
2022/03/09 00:47:04;;;;;;;;;55.00;45.00;;;;;21.13;22.07;101435.66;5098154;27;45381;-79
2022/03/09 00:49:29;;;;;;;;;60.75;47.50;;;;;20.63;22.75;101421.84;5098140;27;45350;-79
2022/03/09 00:51:54;;;;;;;;;60.25;48.75;;;;;20.67;22.49;101426.31;5098051;27;46346;-78
2022/03/09 00:54:20;;;;;;;;;63.50;50.75;;;;;20.57;22.55;101414.75;5089474;27;45382;-79
2022/03/09 00:56:45;;;;;;;;;57.25;46.50;;;;;20.41;22.88;101408.66;5077950;28;45442;-79
2022/03/09 00:59:11;;;;;;;;;55.25;43.25;;;;;20.64;22.51;101410.16;5077679;28;45613;-79
2022/03/09 01:01:36;;;;;;;;;57.00;47.00;;;;;20.91;22.37;101417.03;5077430;28;45351;-79
2022/03/09 01:04:01;;;;;;;;;62.50;47.25;;;;;20.87;22.21;101410.81;5059329;28;45283;-79
2022/03/09 01:06:27;;;;;;;;;66.25;47.75;;;;;21.08;22.13;101433.00;5077594;28;45856;-79
2022/03/09 01:08:52;;;;;;;;;56.50;45.25;;;;;20.76;22.42;101428.03;5094273;27;45437;-79
2022/03/09 01:11:19;;;;;;;;;64.00;51.75;;;;;20.56;22.79;101434.50;5097928;27;45437;-80
2022/03/09 01:13:45;;;;;;;;;58.75;46.25;;;;;20.20;22.74;101367.53;5097856;27;45225;-80
2022/03/09 01:16:11;;;;;;;;;62.75;48.50;;;;;20.84;22.78;101436.91;5078741;27;45567;-79
2022/03/09 01:18:36;;;;;;;;;61.50;47.75;;;;;20.67;22.52;101399.34;5096260;27;45388;-80
2022/03/09 01:21:02;;;;;;;;;60.25;47.00;;;;;20.88;22.46;101409.88;5097393;27;45480;-80
2022/03/09 01:23:27;;;;;;;;;60.00;48.25;;;;;20.85;22.13;101360.50;5079298;27;45420;-80
2022/03/09 01:25:53;;;;;;;;;62.75;48.25;;;;;21.02;22.20;101406.09;5097648;27;45440;-79
2022/03/09 01:28:19;;;;;;;;;63.25;47.50;;;;;21.24;22.23;101429.16;5097860;27;45331;-79
2022/03/09 01:30:44;;;;;;;;;59.50;45.75;;;;;21.01;22.40;101407.94;5097281;27;45418;-79
2022/03/09 01:33:12;;;;;;;;;62.50;46.75;;;;;20.49;22.46;101365.41;5097424;27;45414;-79
2022/03/09 01:35:37;;;;;;;;;63.25;51.00;;;;;20.17;22.86;101367.59;5097456;27;45415;-79
2022/03/09 01:38:03;;;;;;;;;61.75;50.25;;;;;20.12;23.15;101388.28;5097475;27;45442;-79
2022/03/09 01:40:28;;;;;;;;;61.75;48.00;;;;;20.36;23.10;101443.72;5078947;27;47071;-79
2022/03/09 01:42:55;;;;;;;;;58.00;48.75;;;;;20.45;22.76;101423.88;5096312;27;45733;-79
2022/03/09 01:45:20;;;;;;;;;58.00;46.50;;;;;20.56;23.16;101454.28;5097075;27;45381;-78
2022/03/09 01:47:47;;;;;;;;;67.50;52.00;;;;;20.21;23.02;101390.91;5096812;27;45730;-78
2022/03/09 01:50:13;;;;;;;;;64.75;52.75;;;;;20.40;23.36;101450.84;5097260;27;46335;-78
2022/03/09 01:52:40;;;;;;;;;58.75;47.75;;;;;20.28;23.22;101442.94;5096838;27;45431;-79
2022/03/09 01:55:06;;;;;;;;;70.25;53.75;;;;;20.15;23.04;101425.09;5097147;27;45334;-80
2022/03/09 01:57:32;;;;;;;;;64.00;51.50;;;;;19.96;23.58;101444.13;5096946;27;45488;-80
2022/03/09 01:59:58;;;;;;;;;68.00;50.50;;;;;19.97;23.89;101437.84;5096433;27;45334;-79
2022/03/09 02:02:23;;;;;;;;;60.00;49.00;;;;;19.89;23.50;101410.06;5096906;27;45370;-79
2022/03/09 02:04:49;;;;;;;;;61.00;51.00;;;;;19.99;23.80;101430.63;5097168;27;45406;-79
2022/03/09 02:07:14;;;;;;;;;66.50;49.75;;;;;19.76;23.95;101390.41;5097112;27;45485;-80
2022/03/09 02:09:46;;;;;;;;;65.25;52.50;;;;;19.86;23.85;101427.16;5096880;27;45269;-79
2022/03/09 02:12:17;;;;;;;;;67.25;51.00;;;;;19.65;24.02;101438.97;5096850;27;45369;-79
2022/03/09 02:14:49;;;;;;;;;67.25;52.75;;;;;19.62;24.17;101392.31;5096435;27;45383;-80
2022/03/09 02:17:25;;;;;;;;;68.75;52.00;;;;;19.78;23.92;101410.13;5096628;27;45368;-80
2022/03/09 02:19:53;;;;;;;;;59.25;48.50;;;;;19.67;24.08;101425.47;5096355;27;45461;-80
2022/03/09 02:22:33;;;;;;;;;64.75;50.75;;;;;19.71;24.10;101427.25;5094942;27;45426;-79
2022/03/09 02:25:00;;;;;;;;;61.25;48.00;;;;;19.58;24.20;101430.91;5096918;27;45777;-79
2022/03/09 02:27:26;;;;;;;;;65.25;51.75;;;;;19.09;24.34;101344.28;5094206;27;45481;-79
2022/03/09 02:29:52;;;;;;;;;68.00;53.50;;;;;20.02;23.78;101438.66;5096279;27;46070;-80
2022/03/09 02:32:18;;;;;;;;;65.25;53.00;;;;;20.21;23.54;101434.00;5096948;27;45571;-80
2022/03/09 02:34:44;;;;;;;;;61.25;50.50;;;;;20.31;23.07;101396.16;5096694;27;45408;-80
2022/03/09 02:37:10;;;;;;;;;66.00;49.50;;;;;20.78;22.95;101437.00;5096578;27;45475;-80
2022/03/09 02:39:36;;;;;;;;;68.50;51.75;;;;;20.54;22.77;101377.03;5096149;27;46601;-80
2022/03/09 02:42:01;;;;;;;;;67.25;52.25;;;;;20.75;22.49;101397.47;5096305;27;45465;-80
2022/03/09 02:44:27;;;;;;;;;64.75;48.50;;;;;20.82;23.22;101420.75;5096097;27;45315;-80
2022/03/09 02:46:52;;;;;;;;;66.75;53.75;;;;;20.67;22.71;101385.88;5096437;27;45410;-80
2022/03/09 02:49:18;;;;;;;;;55.00;45.75;;;;;20.97;22.90;101441.25;5098398;27;46025;-79
2022/03/09 02:51:43;;;;;;;;;63.75;50.25;;;;;20.99;22.61;101431.31;5098823;27;45461;-80
2022/03/09 02:54:09;;;;;;;;;62.00;50.25;;;;;20.99;22.67;101433.13;5078559;27;45302;-80
2022/03/09 02:56:34;;;;;;;;;63.50;50.00;;;;;21.00;22.40;101429.53;5095115;27;45512;-79
2022/03/09 02:58:59;;;;;;;;;69.50;54.25;;;;;20.66;22.88;101402.94;5096118;27;46673;-80
2022/03/09 03:01:25;;;;;;;;;67.00;53.25;;;;;20.15;23.72;101408.91;5096399;27;45337;-79
2022/03/09 03:03:50;;;;;;;;;67.25;53.25;;;;;19.91;23.97;101426.22;5077905;27;45176;-79
2022/03/09 03:06:15;;;;;;;;;68.25;53.50;;;;;19.76;24.27;101420.03;5096276;27;45587;-79
2022/03/09 03:08:41;;;;;;;;;60.50;48.75;;;;;19.74;24.15;101447.88;5094990;27;46997;-80
2022/03/09 03:11:08;;;;;;;;;66.25;54.25;;;;;19.34;24.16;101376.41;5096404;27;45381;-79
2022/03/09 03:13:36;;;;;;;;;65.25;51.25;;;;;19.82;24.29;101448.75;5094947;27;45404;-79
2022/03/09 03:16:01;;;;;;;;;70.00;54.75;;;;;19.75;24.25;101436.19;5096110;27;45607;-80
2022/03/09 03:18:27;;;;;;;;;68.00;53.00;;;;;19.57;24.04;101400.44;5094525;27;48041;-80
2022/03/09 03:20:54;;;;;;;;;70.50;53.50;;;;;19.57;24.26;101386.97;5096132;27;45231;-80
2022/03/09 03:23:28;;;;;;;;;67.25;51.75;;;;;19.58;24.35;101398.63;5096356;27;45304;-79
2022/03/09 03:25:55;;;;;;;;;64.50;49.75;;;;;19.60;23.93;101394.13;5096074;27;45180;-79
2022/03/09 03:28:21;;;;;;;;;61.75;50.75;;;;;19.71;24.47;101429.94;5095725;27;45416;-79
2022/03/09 03:30:47;;;;;;;;;68.25;52.75;;;;;19.88;24.36;101437.91;5095868;27;45402;-80
2022/03/09 03:33:14;;;;;;;;;62.75;52.50;;;;;19.83;24.54;101442.44;5095881;27;45315;-79
2022/03/09 03:35:40;;;;;;;;;67.25;52.00;;;;;19.95;23.97;101427.97;5095905;27;45326;-79
2022/03/09 03:38:05;;;;;;;;;63.00;49.50;;;;;20.02;24.01;101418.94;5095583;27;45291;-79
2022/03/09 03:40:31;;;;;;;;;67.25;51.75;;;;;20.33;23.61;101421.31;5098693;27;45351;-79
2022/03/09 03:42:57;;;;;;;;;65.25;49.00;;;;;20.78;23.39;101455.88;5099252;27;45223;-79
2022/03/09 03:45:22;;;;;;;;;64.00;49.00;;;;;20.63;23.43;101421.84;5099368;27;45493;-79
2022/03/09 03:47:47;;;;;;;;;62.75;49.50;;;;;20.46;23.28;101387.91;5080575;27;47490;-79
2022/03/09 03:50:13;;;;;;;;;69.00;53.50;;;;;20.86;23.34;101444.06;5099217;27;45253;-78
2022/03/09 03:52:38;;;;;;;;;66.00;51.00;;;;;20.80;23.50;101425.28;5099263;27;45372;-79
2022/03/09 03:55:05;;;;;;;;;61.25;48.75;;;;;20.88;23.52;101465.63;5099016;27;45289;-79
2022/03/09 03:57:30;;;;;;;;;60.25;48.50;;;;;20.84;23.56;101454.00;5098766;27;45376;-78
2022/03/09 03:59:56;;;;;;;;;63.00;49.75;;;;;20.81;23.33;101434.25;5098767;27;45201;-78
2022/03/09 04:02:21;;;;;;;;;65.50;51.00;;;;;20.80;23.46;101460.34;5099111;27;45367;-79
2022/03/09 04:04:46;;;;;;;;;65.50;53.25;;;;;20.69;23.82;101456.88;5098826;27;45464;-79
2022/03/09 04:07:27;;;;;;;;;59.00;47.25;;;;;20.56;23.61;101448.91;5080794;27;47997;-79
2022/03/09 04:09:53;;;;;;;;;64.75;48.50;;;;;20.62;23.57;101444.31;5098847;27;45251;-79
2022/03/09 04:12:19;;;;;;;;;65.00;50.75;;;;;20.66;23.99;101438.00;5097927;27;45383;-82
2022/03/09 04:14:44;;;;;;;;;68.25;55.00;;;;;20.78;23.49;101445.09;5098715;27;45424;-79
2022/03/09 04:17:10;;;;;;;;;64.25;49.25;;;;;20.84;23.43;101442.31;5098754;27;45699;-79
2022/03/09 04:19:36;;;;;;;;;66.25;50.75;;;;;20.82;23.31;101445.03;5098715;27;45230;-79
2022/03/09 04:22:01;;;;;;;;;57.75;45.50;;;;;20.82;23.37;101446.84;5099018;27;45232;-79
2022/03/09 04:24:26;;;;;;;;;65.50;50.50;;;;;20.90;23.47;101444.94;5098546;27;45450;-79
2022/03/09 04:26:52;;;;;;;;;67.25;52.75;;;;;20.88;23.43;101455.72;5089704;27;45342;-79
2022/03/09 04:29:17;;;;;;;;;62.75;48.25;;;;;20.81;23.35;101443.22;5076945;28;46002;-79
2022/03/09 04:31:43;;;;;;;;;64.50;50.75;;;;;20.71;23.35;101444.25;5081736;27;45502;-79
2022/03/09 04:34:12;;;;;;;;;65.75;50.50;;;;;20.15;23.54;101355.91;5080393;27;45619;-79
2022/03/09 04:36:37;;;;;;;;;62.25;48.25;;;;;20.62;23.38;101442.53;5079967;27;48514;-79
2022/03/09 04:39:03;;;;;;;;;63.00;48.75;;;;;20.56;23.34;101440.81;5079399;27;45877;-79
2022/03/09 04:41:29;;;;;;;;;68.00;48.75;;;;;20.59;23.39;101444.38;5098780;27;45366;-80
2022/03/09 04:43:54;;;;;;;;;61.50;48.75;;;;;20.81;23.42;101478.28;5084062;27;45228;-77
2022/03/09 04:46:19;;;;;;;;;58.75;47.75;;;;;20.62;23.34;101457.81;5097960;27;45434;-79
2022/03/09 04:48:45;;;;;;;;;63.50;50.25;;;;;20.67;23.74;101482.94;5097828;27;45374;-78
2022/03/09 04:51:10;;;;;;;;;64.00;50.25;;;;;20.68;23.20;101471.28;5097286;27;45217;-79
2022/03/09 04:53:36;;;;;;;;;58.00;46.25;;;;;20.70;23.71;101469.44;5079678;27;45510;-79
2022/03/09 04:56:01;;;;;;;;;65.25;50.50;;;;;20.81;23.60;101493.59;5097888;27;45692;-78
2022/03/09 04:58:27;;;;;;;;;64.00;49.50;;;;;20.71;23.71;101463.13;5097235;27;45400;-79
2022/03/09 05:00:52;;;;;;;;;61.50;48.50;;;;;20.78;23.67;101477.44;5096900;27;45365;-81
2022/03/09 05:03:18;;;;;;;;;63.50;50.00;;;;;20.51;24.16;101468.72;5086192;27;45553;-81
2022/03/09 05:05:44;;;;;;;;;57.25;46.50;;;;;20.66;23.99;101491.91;5077340;28;45467;-81
2022/03/09 05:08:12;;;;;;;;;63.50;48.50;;;;;20.76;23.82;101492.75;5084681;27;45339;-81
2022/03/09 05:10:38;;;;;;;;;56.75;47.00;;;;;20.78;23.85;101493.63;5079877;27;45603;-79
2022/03/09 05:13:05;;;;;;;;;58.50;46.00;;;;;20.71;24.00;101493.69;5092537;27;45235;-81
2022/03/09 05:15:31;;;;;;;;;59.50;47.75;;;;;20.73;24.06;101485.56;5077217;28;46628;-81
2022/03/09 05:17:57;;;;;;;;;59.50;45.75;;;;;20.63;24.05;101462.31;5076852;28;45389;-80
2022/03/09 05:20:22;;;;;;;;;61.50;48.25;;;;;20.53;24.05;101469.59;5077161;28;45475;-80
2022/03/09 05:22:48;;;;;;;;;54.50;45.75;;;;;20.75;24.12;101496.38;5078811;27;45444;-80
2022/03/09 05:25:14;;;;;;;;;59.75;45.75;;;;;20.70;24.36;101494.63;5097373;27;45715;-80
2022/03/09 05:27:40;;;;;;;;;60.75;49.00;;;;;20.53;24.08;101475.00;5097222;27;45485;-80
2022/03/09 05:30:09;;;;;;;;;63.25;47.75;;;;;20.60;24.26;101503.66;5097534;27;45403;-80
2022/03/09 05:32:35;;;;;;;;;57.50;44.50;;;;;20.59;24.14;101512.69;5081235;27;45511;-79
2022/03/09 05:35:00;;;;;;;;;58.50;45.00;;;;;20.51;24.24;101471.44;5095925;27;46963;-80
2022/03/09 05:37:28;;;;;;;;;56.75;44.50;;;;;20.60;24.32;101494.69;5078653;27;45334;-81
2022/03/09 05:39:53;;;;;;;;;55.25;42.75;;;;;20.56;24.51;101493.81;5075962;27;45343;-80
2022/03/09 05:42:19;;;;;;;;;57.25;48.25;;;;;20.70;24.13;101510.78;5077350;28;45590;-81
2022/03/09 05:44:44;;;;;;;;;54.75;44.25;;;;;20.45;24.32;101515.50;5075853;28;48085;-80
2022/03/09 05:47:20;;;;;;;;;51.50;43.00;;;;;20.32;24.43;101516.53;5059009;28;45646;-80
2022/03/09 05:49:45;;;;;;;;;59.00;42.00;;;;;20.32;24.66;101501.28;5077483;28;45319;-80
2022/03/09 05:52:11;;;;;;;;;55.25;42.00;;;;;20.53;24.59;101500.16;5076883;28;45617;-80
2022/03/09 05:54:36;;;;;;;;;60.50;46.75;;;;;20.16;24.34;101430.44;5075444;28;47381;-80
2022/03/09 06:04:10;;;;;;;;;59.50;46.50;;;;;20.44;24.57;101524.50;5076569;28;45390;-82
2022/03/09 06:06:46;;;;;;;;;56.25;46.25;;;;;20.04;24.51;101488.03;5058437;28;48302;-81
2022/03/09 06:09:11;;;;;;;;;55.25;39.75;;;;;20.01;24.69;101508.72;5092783;27;45346;-81
2022/03/09 06:11:37;;;;;;;;;59.75;46.75;;;;;20.15;24.88;101527.47;5086023;27;45459;-81
2022/03/09 06:14:03;;;;;;;;;60.50;48.75;;;;;20.32;24.54;101513.84;5076764;28;45363;-81
2022/03/09 06:16:28;;;;;;;;;60.25;47.50;;;;;20.14;24.73;101487.94;5088439;27;46908;-81
2022/03/09 06:18:53;;;;;;;;;61.00;47.00;;;;;19.79;25.14;101478.31;5074885;28;45426;-81
2022/03/09 06:21:19;;;;;;;;;52.75;40.50;;;;;19.67;25.65;101543.94;5074883;28;45253;-81
2022/03/09 06:23:45;;;;;;;;;63.25;47.00;;;;;18.77;26.64;101455.56;5055011;28;45632;-81
2022/03/09 06:26:10;;;;;;;;;61.25;47.75;;;;;19.26;26.62;101534.28;5054698;28;46897;-81
2022/03/09 06:28:36;;;;;;;;;58.25;47.00;;;;;19.13;26.35;101471.59;5066304;28;45247;-81
2022/03/09 06:31:01;;;;;;;;;55.75;46.00;;;;;19.18;26.00;101451.84;5060530;27;45344;-80
2022/03/09 06:33:26;;;;;;;;;57.75;46.00;;;;;19.81;25.64;101496.28;5071819;28;45179;-80
2022/03/09 06:35:52;;;;;;;;;51.75;44.75;;;;;20.22;25.48;101529.19;5054460;28;47458;-79
2022/03/09 06:38:18;;;;;;;;;60.50;46.75;;;;;20.30;24.95;101511.16;5055499;28;45327;-80
2022/03/09 06:40:44;;;;;;;;;54.50;46.75;;;;;20.59;25.19;101560.28;5056100;28;45470;-81
2022/03/09 06:43:12;;;;;;;;;53.75;43.25;;;;;19.96;25.64;101489.91;5055740;28;45545;-82
2022/03/09 06:45:37;;;;;;;;;54.25;46.50;;;;;19.92;25.96;101531.22;5054497;28;48024;-81
2022/03/09 06:48:04;;;;;;;;;56.75;45.50;;;;;19.89;26.19;101566.28;5055592;28;45236;-81
2022/03/09 06:50:30;;;;;;;;;54.75;45.25;;;;;19.31;26.87;101474.16;5054334;28;45285;-81
2022/03/09 06:52:56;;;;;;;;;56.75;47.25;;;;;19.36;26.84;101504.63;5055780;28;45316;-81
2022/03/09 06:55:22;;;;;;;;;56.50;45.25;;;;;19.45;26.92;101544.06;5054615;28;48106;-81
2022/03/09 06:57:47;;;;;;;;;49.75;40.75;;;;;19.70;26.50;101546.59;5054323;28;45378;-81
2022/03/09 07:00:14;;;;;;;;;57.50;47.75;;;;;20.00;26.07;101541.94;5074179;28;45370;-81
2022/03/09 07:02:41;;;;;;;;;52.25;45.00;;;;;19.70;25.85;101492.75;5071785;27;45378;-81
2022/03/09 07:05:07;;;;;;;;;59.50;46.50;;;;;20.04;25.81;101503.28;5053696;28;48165;-81
2022/03/09 07:07:32;;;;;;;;;62.00;46.50;;;;;20.40;25.52;101525.44;5053948;28;45381;-81
2022/03/09 07:09:58;;;;;;;;;64.25;50.25;;;;;20.62;25.51;101568.34;5054286;28;45378;-80
2022/03/09 07:12:24;;;;;;;;;54.25;44.75;;;;;20.12;26.17;101509.50;5055318;28;45534;-81
2022/03/09 07:14:49;;;;;;;;;55.50;46.00;;;;;19.86;26.98;101561.78;5057983;28;45544;-81
2022/03/09 07:17:15;;;;;;;;;53.75;43.25;;;;;19.84;27.20;101577.06;5060831;28;45392;-81
2022/03/09 07:19:40;;;;;;;;;56.50;46.50;;;;;19.69;27.20;101528.69;5061115;28;45320;-81
2022/03/09 07:22:06;;;;;;;;;61.00;48.00;;;;;20.10;26.88;101593.94;5079035;28;45398;-81
2022/03/09 07:24:32;;;;;;;;;57.50;46.50;;;;;19.95;26.93;101543.78;5078586;28;46409;-80
2022/03/09 07:26:58;;;;;;;;;60.00;46.75;;;;;19.55;26.67;101464.16;5078750;28;45407;-81
2022/03/09 07:29:23;;;;;;;;;55.75;44.50;;;;;20.49;26.84;101583.75;5095418;27;45433;-81
2022/03/09 07:31:50;;;;;;;;;57.25;45.00;;;;;20.16;27.09;101518.47;5096788;27;45855;-81
2022/03/09 07:34:15;;;;;;;;;58.50;49.00;;;;;20.08;26.88;101518.53;5080385;27;47235;-84
2022/03/09 07:36:41;;;;;;;;;58.00;44.00;;;;;20.46;26.87;101563.09;5084243;27;45555;-86
2022/03/09 07:39:06;;;;;;;;;48.25;41.00;;;;;20.19;27.32;101510.34;5081146;27;45451;-87
2022/03/09 07:41:31;;;;;;;;;57.50;43.75;;;;;20.50;27.63;101569.38;5097279;27;45530;-87
2022/03/09 07:43:57;;;;;;;;;54.75;44.00;;;;;20.40;27.38;101552.38;5098081;27;46111;-87
2022/03/09 07:46:22;;;;;;;;;57.00;43.75;;;;;19.89;28.40;101512.41;5082329;27;45750;-83
2022/03/09 07:48:47;;;;;;;;;59.25;47.25;;;;;20.15;27.81;101522.94;5098892;27;45483;-83
2022/03/09 07:51:13;;;;;;;;;59.00;47.50;;;;;20.21;27.53;101549.84;5080983;27;45505;-89
2022/03/09 07:53:42;;;;;;;;;57.50;46.25;;;;;20.05;27.88;101580.50;5084548;27;47096;-87
2022/03/09 07:56:10;;;;;;;;;57.75;47.75;;;;;20.05;28.18;101578.72;5087984;27;45463;-86
2022/03/09 07:58:36;;;;;;;;;57.75;48.00;;;;;19.63;29.03;101539.47;5093179;27;45459;-86
2022/03/09 08:01:02;;;;;;;;;56.00;43.00;;;;;20.02;28.40;101596.69;5097934;27;45398;-83
2022/03/09 08:03:27;;;;;;;;;57.00;45.25;;;;;19.83;28.50;101540.28;5077509;27;48286;-85
2022/03/09 08:05:52;;;;;;;;;58.25;46.75;;;;;20.21;27.89;101563.34;5078577;27;45599;-88
2022/03/09 08:08:18;;;;;;;;;53.25;45.00;;;;;20.03;28.79;101604.75;5100847;27;45485;-86
2022/03/09 08:10:43;;;;;;;;;58.50;48.00;;;;;19.95;28.86;101559.94;5102134;27;45252;-85
2022/03/09 08:13:11;;;;;;;;;57.75;45.75;;;;;20.76;28.08;101631.19;5078228;27;48020;-84
2022/03/09 08:15:37;;;;;;;;;55.75;44.50;;;;;20.35;28.65;101600.94;5097571;27;45339;-82
2022/03/09 08:18:03;;;;;;;;;56.50;45.25;;;;;20.96;27.96;101627.41;5084632;27;45973;-87
2022/03/09 08:20:29;;;;;;;;;45.50;38.25;;;;;20.19;28.42;101550.78;5108191;27;45547;-84
2022/03/09 08:22:54;;;;;;;;;41.00;37.00;;;;;20.32;28.93;101581.19;5075906;27;48368;-88
2022/03/09 08:25:20;;;;;;;;;52.75;43.00;;;;;20.99;28.20;101633.63;5079101;27;45478;-83
2022/03/09 08:27:45;;;;;;;;;50.33;40.33;;;;;21.05;28.20;101609.31;5099311;27;45435;-86
2022/03/09 08:30:11;;;;;;;;;49.75;42.75;;;;;20.89;28.75;101619.34;5083999;27;45394;-82
2022/03/09 08:32:36;;;;;;;;;52.00;42.00;;;;;21.11;28.30;101586.78;5092448;27;47078;-85
2022/03/09 08:35:02;;;;;;;;;49.50;42.25;;;;;21.03;27.61;101550.88;5079500;27;53969;-87
2022/03/09 08:37:27;;;;;;;;;59.75;47.00;;;;;20.60;28.15;101521.66;5089345;27;45497;-89
2022/03/09 08:39:53;;;;;;;;;59.25;47.00;;;;;21.08;28.46;101587.69;5079574;27;45385;-89
2022/03/09 08:42:18;;;;;;;;;50.00;43.25;;;;;21.19;27.96;101600.16;5079175;27;47186;-86
2022/03/09 08:44:44;;;;;;;;;55.50;44.75;;;;;20.86;28.17;101525.00;5078376;27;45911;-84
2022/03/09 08:47:10;;;;;;;;;51.67;43.00;;;;;21.29;27.94;101582.03;5078249;27;45561;-82
2022/03/09 08:49:39;;;;;;;;;41.33;37.67;;;;;21.59;28.46;101616.78;5072181;27;45548;-82
2022/03/09 08:52:06;;;;;;;;;49.33;42.00;;;;;21.64;28.24;101615.84;5082525;27;46342;-82
2022/03/09 08:54:31;;;;;;;;;57.50;44.75;;;;;21.37;28.36;101570.22;5088845;27;45390;-83
2022/03/09 08:56:56;;;;;;;;;46.67;41.00;;;;;21.53;28.57;101576.38;5095109;27;45476;-82
2022/03/09 08:59:22;;;;;;;;;52.33;42.00;;;;;21.96;28.08;101598.28;5075428;27;45495;-82
2022/03/09 09:01:47;;;;;;;;;46.33;40.67;;;;;21.85;28.21;101587.63;5074323;27;47184;-84
2022/03/09 09:04:14;;;;;;;;;40.00;35.67;;;;;22.13;27.59;101579.09;5077774;27;45408;-86
2022/03/09 09:06:42;;;;;;;;;38.67;35.00;;;;;22.47;27.25;101547.00;5079274;27;45468;-81
2022/03/09 09:09:08;;;;;;;;;42.00;38.00;;;;;22.58;27.85;101596.38;5096991;27;45502;-83
2022/03/09 09:11:33;;;;;;;;;38.67;35.00;;;;;22.40;27.51;101548.94;5093898;27;46111;-83
2022/03/09 09:13:58;;;;;;;;;44.67;39.33;;;;;22.43;27.90;101611.09;5079807;27;45457;-81
2022/03/09 09:16:26;;;;;;;;;41.00;35.33;;;;;22.25;28.26;101608.66;5095729;27;45398;-82
2022/03/09 09:18:52;;;;;;;;;43.00;38.00;;;;;22.49;28.37;101611.88;5080253;27;45545;-82
2022/03/09 09:21:17;;;;;;;;;44.33;36.33;;;;;22.72;27.54;101600.66;5095717;27;46350;-81
2022/03/09 09:23:43;;;;;;;;;39.67;35.33;;;;;22.09;29.28;101640.41;5099120;27;45644;-81
2022/03/09 09:26:08;;;;;;;;;46.67;40.33;;;;;22.33;29.00;101616.63;5077416;27;46396;-80
2022/03/09 09:28:33;;;;;;;;;41.00;37.33;;;;;22.28;28.95;101579.75;5096965;27;45925;-80
2022/03/09 09:30:59;;;;;;;;;34.33;31.00;;;;;21.96;29.58;101592.88;5102982;27;46349;-81
2022/03/09 09:33:24;;;;;;;;;40.67;36.00;;;;;21.93;30.05;101600.09;5096343;27;45360;-83
2022/03/09 09:35:50;;;;;;;;;35.00;27.67;;;;;21.82;30.23;101517.44;5101055;27;45359;-82
2022/03/09 09:38:16;;;;;;;;;27.67;26.33;;;;;22.85;29.39;101621.16;5096161;27;45385;-82
2022/03/09 09:40:43;;;;;;;;;26.33;26.33;;;;;22.91;29.12;101572.34;5095812;27;45769;-82
2022/03/09 09:43:16;;;;;;;;;29.00;25.33;;;;;22.50;29.72;101609.13;5096174;27;45452;-82
2022/03/09 09:45:42;;;;;;;;;28.00;22.33;;;;;21.99;30.71;101552.31;5093524;27;45365;-82
2022/03/09 09:48:08;;;;;;;;;35.33;30.33;;;;;22.63;30.12;101617.97;5093256;27;45602;-82
2022/03/09 09:50:35;;;;;;;;;31.67;30.67;;;;;23.26;29.11;101614.09;5095973;27;45959;-83
2022/03/09 09:53:06;;;;;;;;;27.33;26.00;;;;;23.03;28.66;101541.44;5079653;27;45549;-82
2022/03/09 09:55:32;;;;;;;;;25.00;25.00;;;;;23.26;28.30;101534.69;5096285;27;45380;-82
2022/03/09 09:57:59;;;;;;;;;25.67;23.33;;;;;23.13;28.56;101496.16;5101965;27;45736;-83
2022/03/09 10:00:24;;;;;;;;;25.00;23.00;;;;;23.75;28.51;101589.59;5073645;27;47327;-83
2022/03/09 10:02:51;;;;;;;;;28.67;25.00;;;;;23.94;27.99;101563.88;5096870;27;46026;-82
2022/03/09 10:05:18;;;;;;;;;32.67;26.67;;;;;24.06;27.89;101586.19;5104728;27;45465;-82
2022/03/09 10:08:05;;;;;;;;;21.33;19.33;;;;;23.96;28.52;101607.19;5086119;27;45603;-84
2022/03/09 10:10:31;;;;;;;;;22.00;21.00;;;;;23.83;28.54;101597.56;5095092;27;45465;-80
2022/03/09 10:13:10;;;;;;;;;19.00;18.33;;;;;23.90;29.10;101608.22;5094801;27;45471;-81
2022/03/09 10:15:36;;;;;;;;;18.33;16.33;;;;;23.93;28.75;101607.28;5091291;27;45536;-80
2022/03/09 10:18:19;;;;;;;;;23.00;21.67;;;;;23.85;28.55;101572.19;5089062;27;45485;-83
2022/03/09 10:20:46;;;;;;;;;19.33;18.33;;;;;23.63;28.49;101537.47;5095336;27;46204;-82
2022/03/09 10:23:12;;;;;;;;;22.33;20.33;;;;;23.29;29.58;101553.59;5095288;27;45402;-82
2022/03/09 10:25:38;;;;;;;;;21.00;19.00;;;;;23.33;29.95;101600.44;5094944;27;45480;-83
2022/03/09 10:28:09;;;;;;;;;19.33;17.00;;;;;24.00;28.56;101568.25;5095360;27;45462;-81
2022/03/09 10:30:38;;;;;;;;;17.00;15.33;;;;;24.52;28.10;101579.63;5093014;27;46422;-81
2022/03/09 10:33:06;;;;;;;;;17.00;14.67;;;;;24.55;27.83;101554.22;5093785;27;46727;-82
2022/03/09 10:35:31;;;;;;;;;18.33;18.00;;;;;24.58;28.13;101589.41;5095433;27;45486;-81
2022/03/09 10:38:02;;;;;;;;;21.67;18.00;;;;;24.69;27.83;101590.06;5077197;27;45477;-83
2022/03/09 10:40:30;;;;;;;;;14.00;11.00;;;;;24.58;28.24;101565.00;5075531;27;48215;-81
2022/03/09 10:43:22;;;;;;;;;14.00;14.00;;;;;24.71;27.86;101573.72;5090035;27;46481;-80
2022/03/09 10:46:05;;;;;;;;;11.67;11.67;;;;;24.78;27.79;101581.66;5094700;27;45368;-81
2022/03/09 10:48:52;;;;;;;;;12.00;9.67;;;;;24.78;27.72;101586.19;5072187;27;45393;-80
2022/03/09 10:51:24;;;;;;;;;12.67;12.67;;;;;24.72;27.98;101549.25;5101941;27;46184;-84
2022/03/09 10:53:50;;;;;;;;;12.33;12.33;;;;;25.12;27.01;101566.28;5090424;27;45433;-83
2022/03/09 10:56:21;;;;;;;;;9.00;9.00;;;;;25.25;27.06;101556.81;5095692;27;45854;-84
2022/03/09 10:58:47;;;;;;;;;10.67;10.67;;;;;25.38;26.98;101570.94;5074921;27;45355;-87
2022/03/09 11:01:20;;;;;;;;;12.50;12.00;;;;;24.80;27.42;101582.50;5098217;27;46456;-81
2022/03/09 11:03:47;;;;;;;;;15.67;10.33;;;;;24.52;28.22;101565.16;5094418;27;45452;-86
2022/03/09 11:06:13;;;;;;;;;16.67;12.67;;;;;24.07;28.25;101503.94;5095285;27;45509;-82
2022/03/09 11:08:41;;;;;;;;;18.33;15.67;;;;;24.07;29.00;101583.44;5068076;27;45558;-83
2022/03/09 11:11:08;;;;;;;;;16.00;15.33;;;;;24.31;28.27;101546.69;5094943;27;46341;-83
2022/03/09 11:13:38;;;;;;;;;12.67;12.67;;;;;24.53;27.78;101532.56;5094960;27;45463;-84